sensor_id;sensor_type;location;lat;lon;timestamp;P1;durP1;ratioP1;P2;durP2;ratioP2
68938;SDS011;59064;45.294;11.816;2024-01-25T00:01:41;88.40;;;48.10;;
68938;SDS011;59064;45.294;11.816;2024-01-25T00:04:07;85.40;;;46.20;;
68938;SDS011;59064;45.294;11.816;2024-01-25T00:06:33;82.00;;;45.10;;
68938;SDS011;59064;45.294;11.816;2024-01-25T00:08:59;80.90;;;46.50;;
68938;SDS011;59064;45.294;11.816;2024-01-25T00:11:25;80.30;;;45.00;;
68938;SDS011;59064;45.294;11.816;2024-01-25T00:13:51;89.00;;;50.00;;
68938;SDS011;59064;45.294;11.816;2024-01-25T00:16:17;75.70;;;40.90;;
68938;SDS011;59064;45.294;11.816;2024-01-25T00:18:42;88.60;;;49.30;;
68938;SDS011;59064;45.294;11.816;2024-01-25T00:21:08;89.10;;;49.30;;
68938;SDS011;59064;45.294;11.816;2024-01-25T00:23:33;73.10;;;41.00;;
68938;SDS011;59064;45.294;11.816;2024-01-25T00:25:59;77.40;;;42.10;;
68938;SDS011;59064;45.294;11.816;2024-01-25T00:28:25;74.70;;;38.40;;
68938;SDS011;59064;45.294;11.816;2024-01-25T00:30:51;71.70;;;39.70;;
68938;SDS011;59064;45.294;11.816;2024-01-25T00:33:17;72.50;;;41.20;;
68938;SDS011;59064;45.294;11.816;2024-01-25T00:35:43;65.40;;;36.50;;
68938;SDS011;59064;45.294;11.816;2024-01-25T00:38:09;69.00;;;39.30;;
68938;SDS011;59064;45.294;11.816;2024-01-25T00:40:35;76.30;;;43.50;;
68938;SDS011;59064;45.294;11.816;2024-01-25T00:43:00;75.80;;;42.30;;
68938;SDS011;59064;45.294;11.816;2024-01-25T00:45:26;75.30;;;43.30;;
68938;SDS011;59064;45.294;11.816;2024-01-25T00:47:52;69.20;;;39.70;;
68938;SDS011;59064;45.294;11.816;2024-01-25T00:50:18;74.80;;;43.50;;
68938;SDS011;59064;45.294;11.816;2024-01-25T00:52:52;71.40;;;38.60;;
68938;SDS011;59064;45.294;11.816;2024-01-25T00:55:18;75.70;;;41.20;;
68938;SDS011;59064;45.294;11.816;2024-01-25T00:57:44;62.80;;;33.90;;
68938;SDS011;59064;45.294;11.816;2024-01-25T01:00:10;69.60;;;38.80;;
68938;SDS011;59064;45.294;11.816;2024-01-25T01:02:39;72.90;;;40.80;;
68938;SDS011;59064;45.294;11.816;2024-01-25T01:05:07;70.30;;;38.90;;
68938;SDS011;59064;45.294;11.816;2024-01-25T01:07:33;67.70;;;36.50;;
68938;SDS011;59064;45.294;11.816;2024-01-25T01:09:59;67.00;;;37.50;;
68938;SDS011;59064;45.294;11.816;2024-01-25T01:12:24;70.60;;;39.40;;
68938;SDS011;59064;45.294;11.816;2024-01-25T01:14:50;67.20;;;35.90;;
68938;SDS011;59064;45.294;11.816;2024-01-25T01:17:15;76.00;;;39.90;;
68938;SDS011;59064;45.294;11.816;2024-01-25T01:19:41;74.30;;;43.00;;
68938;SDS011;59064;45.294;11.816;2024-01-25T01:22:07;72.90;;;41.00;;
68938;SDS011;59064;45.294;11.816;2024-01-25T01:24:33;68.30;;;39.60;;
68938;SDS011;59064;45.294;11.816;2024-01-25T01:26:58;71.80;;;40.90;;
68938;SDS011;59064;45.294;11.816;2024-01-25T01:29:24;71.90;;;40.90;;
68938;SDS011;59064;45.294;11.816;2024-01-25T01:31:49;70.10;;;40.40;;
68938;SDS011;59064;45.294;11.816;2024-01-25T01:34:15;64.50;;;37.90;;
68938;SDS011;59064;45.294;11.816;2024-01-25T01:36:42;63.80;;;35.90;;
68938;SDS011;59064;45.294;11.816;2024-01-25T01:39:08;64.40;;;37.40;;
68938;SDS011;59064;45.294;11.816;2024-01-25T01:41:34;61.60;;;36.90;;
68938;SDS011;59064;45.294;11.816;2024-01-25T01:44:00;67.40;;;37.90;;
68938;SDS011;59064;45.294;11.816;2024-01-25T01:49:06;73.30;;;41.60;;
68938;SDS011;59064;45.294;11.816;2024-01-25T01:51:36;73.90;;;41.60;;
68938;SDS011;59064;45.294;11.816;2024-01-25T01:54:02;78.20;;;41.70;;
68938;SDS011;59064;45.294;11.816;2024-01-25T01:56:28;73.40;;;40.90;;
68938;SDS011;59064;45.294;11.816;2024-01-25T01:59:01;82.90;;;45.40;;
68938;SDS011;59064;45.294;11.816;2024-01-25T02:01:30;77.50;;;44.70;;
68938;SDS011;59064;45.294;11.816;2024-01-25T02:03:56;78.70;;;42.80;;
68938;SDS011;59064;45.294;11.816;2024-01-25T02:06:22;71.00;;;40.50;;
68938;SDS011;59064;45.294;11.816;2024-01-25T02:08:48;75.70;;;42.70;;
68938;SDS011;59064;45.294;11.816;2024-01-25T02:11:16;82.00;;;45.60;;
68938;SDS011;59064;45.294;11.816;2024-01-25T02:13:42;66.70;;;35.50;;
68938;SDS011;59064;45.294;11.816;2024-01-25T02:16:07;64.40;;;35.90;;
68938;SDS011;59064;45.294;11.816;2024-01-25T02:18:34;76.20;;;39.80;;
68938;SDS011;59064;45.294;11.816;2024-01-25T02:21:00;68.70;;;38.00;;
68938;SDS011;59064;45.294;11.816;2024-01-25T02:23:26;71.50;;;39.50;;
68938;SDS011;59064;45.294;11.816;2024-01-25T02:25:51;72.10;;;40.80;;
68938;SDS011;59064;45.294;11.816;2024-01-25T02:28:17;74.70;;;43.10;;
68938;SDS011;59064;45.294;11.816;2024-01-25T02:30:42;80.10;;;46.20;;
68938;SDS011;59064;45.294;11.816;2024-01-25T02:33:08;67.10;;;37.80;;
68938;SDS011;59064;45.294;11.816;2024-01-25T02:35:33;76.50;;;43.00;;
68938;SDS011;59064;45.294;11.816;2024-01-25T02:37:58;76.70;;;43.50;;
68938;SDS011;59064;45.294;11.816;2024-01-25T02:40:24;71.30;;;40.20;;
68938;SDS011;59064;45.294;11.816;2024-01-25T02:42:50;78.50;;;43.70;;
68938;SDS011;59064;45.294;11.816;2024-01-25T02:45:16;63.40;;;36.60;;
68938;SDS011;59064;45.294;11.816;2024-01-25T02:47:41;63.90;;;35.40;;
68938;SDS011;59064;45.294;11.816;2024-01-25T02:50:07;63.20;;;35.50;;
68938;SDS011;59064;45.294;11.816;2024-01-25T02:52:33;73.30;;;41.70;;
68938;SDS011;59064;45.294;11.816;2024-01-25T02:54:58;59.20;;;33.10;;
68938;SDS011;59064;45.294;11.816;2024-01-25T02:57:24;68.80;;;40.90;;
68938;SDS011;59064;45.294;11.816;2024-01-25T02:59:50;63.80;;;35.90;;
68938;SDS011;59064;45.294;11.816;2024-01-25T03:02:15;69.10;;;39.40;;
68938;SDS011;59064;45.294;11.816;2024-01-25T03:04:43;64.50;;;37.50;;
68938;SDS011;59064;45.294;11.816;2024-01-25T03:07:09;54.30;;;29.40;;
68938;SDS011;59064;45.294;11.816;2024-01-25T03:09:34;65.90;;;36.40;;
68938;SDS011;59064;45.294;11.816;2024-01-25T03:12:00;53.50;;;31.20;;
68938;SDS011;59064;45.294;11.816;2024-01-25T03:14:25;68.10;;;39.10;;
68938;SDS011;59064;45.294;11.816;2024-01-25T03:16:51;61.30;;;34.70;;
68938;SDS011;59064;45.294;11.816;2024-01-25T03:19:18;66.10;;;37.60;;
68938;SDS011;59064;45.294;11.816;2024-01-25T03:21:43;68.00;;;39.90;;
68938;SDS011;59064;45.294;11.816;2024-01-25T03:24:09;62.30;;;37.20;;
68938;SDS011;59064;45.294;11.816;2024-01-25T03:26:34;68.20;;;39.40;;
68938;SDS011;59064;45.294;11.816;2024-01-25T03:29:00;63.50;;;31.70;;
68938;SDS011;59064;45.294;11.816;2024-01-25T03:31:25;68.80;;;34.70;;
68938;SDS011;59064;45.294;11.816;2024-01-25T03:33:51;60.00;;;35.30;;
68938;SDS011;59064;45.294;11.816;2024-01-25T03:36:16;64.30;;;38.90;;
68938;SDS011;59064;45.294;11.816;2024-01-25T03:38:42;69.90;;;39.00;;
68938;SDS011;59064;45.294;11.816;2024-01-25T03:41:08;67.00;;;40.80;;
68938;SDS011;59064;45.294;11.816;2024-01-25T03:43:34;73.10;;;38.60;;
68938;SDS011;59064;45.294;11.816;2024-01-25T03:46:00;70.50;;;39.90;;
68938;SDS011;59064;45.294;11.816;2024-01-25T03:48:26;56.90;;;33.20;;
68938;SDS011;59064;45.294;11.816;2024-01-25T03:50:52;74.50;;;40.50;;
68938;SDS011;59064;45.294;11.816;2024-01-25T03:53:21;68.40;;;38.60;;
68938;SDS011;59064;45.294;11.816;2024-01-25T03:55:49;68.80;;;38.00;;
68938;SDS011;59064;45.294;11.816;2024-01-25T03:58:16;62.60;;;35.70;;
68938;SDS011;59064;45.294;11.816;2024-01-25T04:00:44;65.10;;;36.30;;
68938;SDS011;59064;45.294;11.816;2024-01-25T04:03:31;66.30;;;40.30;;
68938;SDS011;59064;45.294;11.816;2024-01-25T04:05:57;60.50;;;35.60;;
68938;SDS011;59064;45.294;11.816;2024-01-25T04:08:23;62.20;;;36.40;;
68938;SDS011;59064;45.294;11.816;2024-01-25T04:10:49;71.40;;;38.90;;
68938;SDS011;59064;45.294;11.816;2024-01-25T04:13:15;57.80;;;32.00;;
68938;SDS011;59064;45.294;11.816;2024-01-25T04:15:41;65.20;;;37.50;;
68938;SDS011;59064;45.294;11.816;2024-01-25T04:18:06;69.20;;;39.20;;
68938;SDS011;59064;45.294;11.816;2024-01-25T04:20:32;65.10;;;38.60;;
68938;SDS011;59064;45.294;11.816;2024-01-25T04:22:59;62.30;;;36.70;;
68938;SDS011;59064;45.294;11.816;2024-01-25T04:25:25;73.10;;;42.60;;
68938;SDS011;59064;45.294;11.816;2024-01-25T04:27:50;65.80;;;37.60;;
68938;SDS011;59064;45.294;11.816;2024-01-25T04:30:16;69.10;;;41.20;;
68938;SDS011;59064;45.294;11.816;2024-01-25T04:32:43;63.70;;;39.20;;
68938;SDS011;59064;45.294;11.816;2024-01-25T04:35:10;71.60;;;41.20;;
68938;SDS011;59064;45.294;11.816;2024-01-25T04:37:35;70.60;;;42.50;;
68938;SDS011;59064;45.294;11.816;2024-01-25T04:40:02;74.10;;;41.10;;
68938;SDS011;59064;45.294;11.816;2024-01-25T04:42:30;73.10;;;41.50;;
68938;SDS011;59064;45.294;11.816;2024-01-25T04:44:56;61.50;;;35.40;;
68938;SDS011;59064;45.294;11.816;2024-01-25T04:47:21;62.60;;;37.30;;
68938;SDS011;59064;45.294;11.816;2024-01-25T04:49:47;62.20;;;33.60;;
68938;SDS011;59064;45.294;11.816;2024-01-25T04:52:12;66.40;;;38.00;;
68938;SDS011;59064;45.294;11.816;2024-01-25T04:54:38;66.60;;;38.20;;
68938;SDS011;59064;45.294;11.816;2024-01-25T04:57:03;55.50;;;32.10;;
68938;SDS011;59064;45.294;11.816;2024-01-25T04:59:32;59.10;;;33.40;;
68938;SDS011;59064;45.294;11.816;2024-01-25T05:01:58;62.00;;;32.20;;
68938;SDS011;59064;45.294;11.816;2024-01-25T05:04:24;61.20;;;35.10;;
68938;SDS011;59064;45.294;11.816;2024-01-25T05:06:50;69.20;;;39.20;;
68938;SDS011;59064;45.294;11.816;2024-01-25T05:09:15;67.50;;;38.00;;
68938;SDS011;59064;45.294;11.816;2024-01-25T05:11:41;71.90;;;41.00;;
68938;SDS011;59064;45.294;11.816;2024-01-25T05:14:07;70.00;;;40.20;;
68938;SDS011;59064;45.294;11.816;2024-01-25T05:16:33;73.00;;;42.40;;
68938;SDS011;59064;45.294;11.816;2024-01-25T05:19:00;72.70;;;38.60;;
68938;SDS011;59064;45.294;11.816;2024-01-25T05:21:27;70.90;;;41.50;;
68938;SDS011;59064;45.294;11.816;2024-01-25T05:23:53;66.90;;;39.80;;
68938;SDS011;59064;45.294;11.816;2024-01-25T05:26:19;71.20;;;41.40;;
68938;SDS011;59064;45.294;11.816;2024-01-25T05:28:44;73.80;;;40.20;;
68938;SDS011;59064;45.294;11.816;2024-01-25T05:31:10;71.10;;;40.60;;
68938;SDS011;59064;45.294;11.816;2024-01-25T05:33:42;75.00;;;43.40;;
68938;SDS011;59064;45.294;11.816;2024-01-25T05:36:08;75.30;;;41.80;;
68938;SDS011;59064;45.294;11.816;2024-01-25T05:38:34;73.20;;;39.30;;
68938;SDS011;59064;45.294;11.816;2024-01-25T05:41:00;65.80;;;35.10;;
68938;SDS011;59064;45.294;11.816;2024-01-25T05:43:26;60.70;;;32.60;;
68938;SDS011;59064;45.294;11.816;2024-01-25T05:45:51;64.00;;;35.00;;
68938;SDS011;59064;45.294;11.816;2024-01-25T05:48:16;64.70;;;36.70;;
68938;SDS011;59064;45.294;11.816;2024-01-25T05:50:42;61.30;;;34.00;;
68938;SDS011;59064;45.294;11.816;2024-01-25T05:53:08;63.90;;;36.30;;
68938;SDS011;59064;45.294;11.816;2024-01-25T05:55:33;63.90;;;37.40;;
68938;SDS011;59064;45.294;11.816;2024-01-25T05:58:00;69.50;;;37.20;;
68938;SDS011;59064;45.294;11.816;2024-01-25T06:00:25;77.30;;;44.20;;
68938;SDS011;59064;45.294;11.816;2024-01-25T06:02:51;79.70;;;45.40;;
68938;SDS011;59064;45.294;11.816;2024-01-25T06:05:16;67.10;;;39.10;;
68938;SDS011;59064;45.294;11.816;2024-01-25T06:07:42;80.10;;;43.90;;
68938;SDS011;59064;45.294;11.816;2024-01-25T06:10:07;69.30;;;40.30;;
68938;SDS011;59064;45.294;11.816;2024-01-25T06:12:33;59.50;;;35.50;;
68938;SDS011;59064;45.294;11.816;2024-01-25T06:14:59;61.70;;;37.10;;
68938;SDS011;59064;45.294;11.816;2024-01-25T06:17:24;59.60;;;34.00;;
68938;SDS011;59064;45.294;11.816;2024-01-25T06:19:50;95.60;;;52.50;;
68938;SDS011;59064;45.294;11.816;2024-01-25T06:22:16;116.10;;;66.90;;
68938;SDS011;59064;45.294;11.816;2024-01-25T06:24:42;86.10;;;46.70;;
68938;SDS011;59064;45.294;11.816;2024-01-25T06:27:09;93.80;;;55.60;;
68938;SDS011;59064;45.294;11.816;2024-01-25T06:29:35;76.40;;;41.10;;
68938;SDS011;59064;45.294;11.816;2024-01-25T06:32:00;67.60;;;38.50;;
68938;SDS011;59064;45.294;11.816;2024-01-25T06:34:26;68.10;;;40.30;;
68938;SDS011;59064;45.294;11.816;2024-01-25T06:36:51;87.80;;;48.10;;
68938;SDS011;59064;45.294;11.816;2024-01-25T06:39:17;68.10;;;37.80;;
68938;SDS011;59064;45.294;11.816;2024-01-25T06:41:42;66.70;;;38.00;;
68938;SDS011;59064;45.294;11.816;2024-01-25T06:44:08;72.50;;;42.10;;
68938;SDS011;59064;45.294;11.816;2024-01-25T06:46:33;78.20;;;43.40;;
68938;SDS011;59064;45.294;11.816;2024-01-25T06:48:59;77.20;;;43.00;;
68938;SDS011;59064;45.294;11.816;2024-01-25T06:51:24;67.00;;;36.90;;
68938;SDS011;59064;45.294;11.816;2024-01-25T06:53:50;68.40;;;37.20;;
68938;SDS011;59064;45.294;11.816;2024-01-25T06:56:15;70.30;;;37.70;;
68938;SDS011;59064;45.294;11.816;2024-01-25T06:58:41;68.40;;;39.20;;
68938;SDS011;59064;45.294;11.816;2024-01-25T07:01:07;70.40;;;38.10;;
68938;SDS011;59064;45.294;11.816;2024-01-25T07:03:32;69.80;;;37.80;;
68938;SDS011;59064;45.294;11.816;2024-01-25T07:05:58;73.50;;;39.20;;
68938;SDS011;59064;45.294;11.816;2024-01-25T07:08:24;69.70;;;39.90;;
68938;SDS011;59064;45.294;11.816;2024-01-25T07:10:49;67.80;;;39.00;;
68938;SDS011;59064;45.294;11.816;2024-01-25T07:13:15;68.80;;;38.30;;
68938;SDS011;59064;45.294;11.816;2024-01-25T07:15:41;66.50;;;38.20;;
68938;SDS011;59064;45.294;11.816;2024-01-25T07:18:07;73.10;;;40.50;;
68938;SDS011;59064;45.294;11.816;2024-01-25T07:20:33;65.70;;;39.10;;
68938;SDS011;59064;45.294;11.816;2024-01-25T07:22:58;70.70;;;38.20;;
68938;SDS011;59064;45.294;11.816;2024-01-25T07:25:24;77.70;;;41.90;;
68938;SDS011;59064;45.294;11.816;2024-01-25T07:27:49;72.70;;;38.70;;
68938;SDS011;59064;45.294;11.816;2024-01-25T07:30:16;73.70;;;41.60;;
68938;SDS011;59064;45.294;11.816;2024-01-25T07:32:42;74.50;;;42.00;;
68938;SDS011;59064;45.294;11.816;2024-01-25T07:35:07;73.90;;;40.40;;
68938;SDS011;59064;45.294;11.816;2024-01-25T07:37:37;74.50;;;43.70;;
68938;SDS011;59064;45.294;11.816;2024-01-25T07:40:02;77.20;;;45.00;;
68938;SDS011;59064;45.294;11.816;2024-01-25T07:42:28;86.00;;;47.00;;
68938;SDS011;59064;45.294;11.816;2024-01-25T07:44:54;82.10;;;46.00;;
68938;SDS011;59064;45.294;11.816;2024-01-25T07:47:20;75.50;;;43.60;;
68938;SDS011;59064;45.294;11.816;2024-01-25T07:49:45;74.10;;;42.90;;
68938;SDS011;59064;45.294;11.816;2024-01-25T07:52:11;71.30;;;40.30;;
68938;SDS011;59064;45.294;11.816;2024-01-25T07:54:36;76.20;;;43.10;;
68938;SDS011;59064;45.294;11.816;2024-01-25T07:57:02;70.60;;;41.60;;
68938;SDS011;59064;45.294;11.816;2024-01-25T07:59:28;73.00;;;42.60;;
68938;SDS011;59064;45.294;11.816;2024-01-25T08:01:53;64.50;;;38.00;;
68938;SDS011;59064;45.294;11.816;2024-01-25T08:04:19;76.40;;;42.20;;
68938;SDS011;59064;45.294;11.816;2024-01-25T08:06:44;73.90;;;42.60;;
68938;SDS011;59064;45.294;11.816;2024-01-25T08:09:10;70.10;;;41.30;;
68938;SDS011;59064;45.294;11.816;2024-01-25T08:11:36;69.50;;;41.00;;
68938;SDS011;59064;45.294;11.816;2024-01-25T08:14:02;63.50;;;38.00;;
68938;SDS011;59064;45.294;11.816;2024-01-25T08:16:28;66.90;;;39.60;;
68938;SDS011;59064;45.294;11.816;2024-01-25T08:18:55;60.90;;;36.20;;
68938;SDS011;59064;45.294;11.816;2024-01-25T08:21:20;62.00;;;36.90;;
68938;SDS011;59064;45.294;11.816;2024-01-25T08:23:46;63.40;;;38.20;;
68938;SDS011;59064;45.294;11.816;2024-01-25T08:26:12;60.20;;;37.80;;
68938;SDS011;59064;45.294;11.816;2024-01-25T08:28:39;59.10;;;35.10;;
68938;SDS011;59064;45.294;11.816;2024-01-25T08:31:05;60.60;;;36.10;;
68938;SDS011;59064;45.294;11.816;2024-01-25T08:33:31;60.90;;;35.00;;
68938;SDS011;59064;45.294;11.816;2024-01-25T08:35:57;54.20;;;32.70;;
68938;SDS011;59064;45.294;11.816;2024-01-25T08:38:24;51.40;;;31.00;;
68938;SDS011;59064;45.294;11.816;2024-01-25T08:40:52;47.50;;;28.70;;
68938;SDS011;59064;45.294;11.816;2024-01-25T08:43:19;46.50;;;29.90;;
68938;SDS011;59064;45.294;11.816;2024-01-25T08:45:45;51.20;;;31.90;;
68938;SDS011;59064;45.294;11.816;2024-01-25T08:48:11;49.40;;;30.70;;
68938;SDS011;59064;45.294;11.816;2024-01-25T08:50:38;46.80;;;28.00;;
68938;SDS011;59064;45.294;11.816;2024-01-25T08:53:04;50.30;;;30.30;;
68938;SDS011;59064;45.294;11.816;2024-01-25T08:55:30;48.80;;;30.60;;
68938;SDS011;59064;45.294;11.816;2024-01-25T08:57:56;43.20;;;25.60;;
68938;SDS011;59064;45.294;11.816;2024-01-25T09:00:21;45.50;;;30.20;;
68938;SDS011;59064;45.294;11.816;2024-01-25T09:02:47;44.70;;;28.30;;
68938;SDS011;59064;45.294;11.816;2024-01-25T09:05:13;46.90;;;29.60;;
68938;SDS011;59064;45.294;11.816;2024-01-25T09:07:39;46.10;;;30.30;;
68938;SDS011;59064;45.294;11.816;2024-01-25T09:10:06;51.30;;;31.60;;
68938;SDS011;59064;45.294;11.816;2024-01-25T09:12:33;50.60;;;32.30;;
68938;SDS011;59064;45.294;11.816;2024-01-25T09:15:00;47.90;;;30.70;;
68938;SDS011;59064;45.294;11.816;2024-01-25T09:17:26;46.80;;;29.30;;
68938;SDS011;59064;45.294;11.816;2024-01-25T09:19:51;48.60;;;28.80;;
68938;SDS011;59064;45.294;11.816;2024-01-25T09:22:17;49.40;;;31.00;;
68938;SDS011;59064;45.294;11.816;2024-01-25T09:24:44;48.20;;;28.70;;
68938;SDS011;59064;45.294;11.816;2024-01-25T09:27:11;49.70;;;32.60;;
68938;SDS011;59064;45.294;11.816;2024-01-25T09:29:37;48.90;;;30.00;;
68938;SDS011;59064;45.294;11.816;2024-01-25T09:32:04;43.90;;;28.70;;
68938;SDS011;59064;45.294;11.816;2024-01-25T09:34:31;49.20;;;32.20;;
68938;SDS011;59064;45.294;11.816;2024-01-25T09:36:57;48.90;;;30.40;;
68938;SDS011;59064;45.294;11.816;2024-01-25T09:39:23;47.30;;;31.10;;
68938;SDS011;59064;45.294;11.816;2024-01-25T09:41:48;51.10;;;29.80;;
68938;SDS011;59064;45.294;11.816;2024-01-25T09:44:14;46.50;;;30.10;;
68938;SDS011;59064;45.294;11.816;2024-01-25T09:46:39;46.70;;;29.70;;
68938;SDS011;59064;45.294;11.816;2024-01-25T09:49:06;44.80;;;27.30;;
68938;SDS011;59064;45.294;11.816;2024-01-25T09:51:36;45.00;;;25.80;;
68938;SDS011;59064;45.294;11.816;2024-01-25T09:54:03;47.00;;;30.40;;
68938;SDS011;59064;45.294;11.816;2024-01-25T09:56:31;38.10;;;23.20;;
68938;SDS011;59064;45.294;11.816;2024-01-25T09:58:58;43.60;;;27.60;;
68938;SDS011;59064;45.294;11.816;2024-01-25T10:01:24;44.30;;;27.60;;
68938;SDS011;59064;45.294;11.816;2024-01-25T10:03:49;49.60;;;31.70;;
68938;SDS011;59064;45.294;11.816;2024-01-25T10:06:15;46.20;;;29.70;;
68938;SDS011;59064;45.294;11.816;2024-01-25T10:08:41;46.60;;;30.20;;
68938;SDS011;59064;45.294;11.816;2024-01-25T10:11:08;44.90;;;29.00;;
68938;SDS011;59064;45.294;11.816;2024-01-25T10:13:43;47.50;;;30.00;;
68938;SDS011;59064;45.294;11.816;2024-01-25T10:16:13;42.00;;;26.20;;
68938;SDS011;59064;45.294;11.816;2024-01-25T10:18:40;44.20;;;29.00;;
68938;SDS011;59064;45.294;11.816;2024-01-25T10:21:10;47.50;;;30.10;;
68938;SDS011;59064;45.294;11.816;2024-01-25T10:23:37;39.70;;;26.90;;
68938;SDS011;59064;45.294;11.816;2024-01-25T10:26:03;41.80;;;26.50;;
68938;SDS011;59064;45.294;11.816;2024-01-25T10:28:29;40.30;;;25.00;;
68938;SDS011;59064;45.294;11.816;2024-01-25T10:30:57;44.50;;;25.90;;
68938;SDS011;59064;45.294;11.816;2024-01-25T10:33:24;43.10;;;28.60;;
68938;SDS011;59064;45.294;11.816;2024-01-25T10:35:53;41.10;;;23.20;;
68938;SDS011;59064;45.294;11.816;2024-01-25T10:38:26;30.10;;;17.60;;
68938;SDS011;59064;45.294;11.816;2024-01-25T10:41:02;38.20;;;23.30;;
68938;SDS011;59064;45.294;11.816;2024-01-25T10:43:30;41.20;;;25.90;;
68938;SDS011;59064;45.294;11.816;2024-01-25T10:45:57;41.20;;;26.30;;
68938;SDS011;59064;45.294;11.816;2024-01-25T10:48:26;35.90;;;23.50;;
68938;SDS011;59064;45.294;11.816;2024-01-25T10:50:57;31.10;;;20.40;;
68938;SDS011;59064;45.294;11.816;2024-01-25T10:53:24;38.20;;;23.50;;
68938;SDS011;59064;45.294;11.816;2024-01-25T10:55:52;31.20;;;19.50;;
68938;SDS011;59064;45.294;11.816;2024-01-25T10:58:18;36.60;;;24.10;;
68938;SDS011;59064;45.294;11.816;2024-01-25T11:00:56;32.30;;;19.20;;
68938;SDS011;59064;45.294;11.816;2024-01-25T11:03:27;35.80;;;21.60;;
68938;SDS011;59064;45.294;11.816;2024-01-25T11:05:54;39.10;;;22.60;;
68938;SDS011;59064;45.294;11.816;2024-01-25T11:08:20;39.50;;;25.40;;
68938;SDS011;59064;45.294;11.816;2024-01-25T11:10:52;40.30;;;23.70;;
68938;SDS011;59064;45.294;11.816;2024-01-25T11:13:23;37.10;;;24.90;;
68938;SDS011;59064;45.294;11.816;2024-01-25T11:15:51;37.30;;;26.10;;
68938;SDS011;59064;45.294;11.816;2024-01-25T11:18:17;35.50;;;24.40;;
68938;SDS011;59064;45.294;11.816;2024-01-25T11:20:46;36.10;;;24.80;;
68938;SDS011;59064;45.294;11.816;2024-01-25T11:23:14;39.00;;;25.80;;
68938;SDS011;59064;45.294;11.816;2024-01-25T11:25:43;37.50;;;24.50;;
68938;SDS011;59064;45.294;11.816;2024-01-25T11:28:11;39.60;;;27.50;;
68938;SDS011;59064;45.294;11.816;2024-01-25T11:30:37;38.80;;;26.10;;
68938;SDS011;59064;45.294;11.816;2024-01-25T11:33:09;40.60;;;27.50;;
68938;SDS011;59064;45.294;11.816;2024-01-25T11:35:35;34.70;;;21.90;;
68938;SDS011;59064;45.294;11.816;2024-01-25T11:38:01;38.00;;;26.50;;
68938;SDS011;59064;45.294;11.816;2024-01-25T11:40:27;34.00;;;24.00;;
68938;SDS011;59064;45.294;11.816;2024-01-25T11:42:56;35.80;;;25.00;;
68938;SDS011;59064;45.294;11.816;2024-01-25T11:45:22;34.10;;;21.20;;
68938;SDS011;59064;45.294;11.816;2024-01-25T11:47:48;34.40;;;23.80;;
68938;SDS011;59064;45.294;11.816;2024-01-25T11:50:15;31.80;;;24.30;;
68938;SDS011;59064;45.294;11.816;2024-01-25T11:52:40;30.50;;;21.30;;
68938;SDS011;59064;45.294;11.816;2024-01-25T11:55:06;33.80;;;24.40;;
68938;SDS011;59064;45.294;11.816;2024-01-25T11:57:36;21.80;;;11.80;;
68938;SDS011;59064;45.294;11.816;2024-01-25T12:00:04;24.70;;;16.40;;
68938;SDS011;59064;45.294;11.816;2024-01-25T12:02:31;26.80;;;19.70;;
68938;SDS011;59064;45.294;11.816;2024-01-25T12:04:57;28.90;;;20.20;;
68938;SDS011;59064;45.294;11.816;2024-01-25T12:07:23;27.70;;;20.10;;
68938;SDS011;59064;45.294;11.816;2024-01-25T12:10:08;28.30;;;20.90;;
68938;SDS011;59064;45.294;11.816;2024-01-25T12:12:40;28.40;;;19.20;;
68938;SDS011;59064;45.294;11.816;2024-01-25T12:15:06;27.40;;;20.00;;
68938;SDS011;59064;45.294;11.816;2024-01-25T12:17:32;30.10;;;20.30;;
68938;SDS011;59064;45.294;11.816;2024-01-25T12:20:01;33.10;;;21.20;;
68938;SDS011;59064;45.294;11.816;2024-01-25T12:22:27;28.00;;;19.10;;
68938;SDS011;59064;45.294;11.816;2024-01-25T12:24:54;26.20;;;17.60;;
68938;SDS011;59064;45.294;11.816;2024-01-25T12:27:24;25.80;;;18.40;;
68938;SDS011;59064;45.294;11.816;2024-01-25T12:29:50;24.80;;;17.40;;
68938;SDS011;59064;45.294;11.816;2024-01-25T12:32:18;26.20;;;19.70;;
68938;SDS011;59064;45.294;11.816;2024-01-25T12:34:57;27.10;;;19.70;;
68938;SDS011;59064;45.294;11.816;2024-01-25T12:37:26;28.00;;;18.50;;
68938;SDS011;59064;45.294;11.816;2024-01-25T12:39:51;30.00;;;20.50;;
68938;SDS011;59064;45.294;11.816;2024-01-25T12:42:19;27.70;;;21.20;;
68938;SDS011;59064;45.294;11.816;2024-01-25T12:44:45;28.20;;;20.00;;
68938;SDS011;59064;45.294;11.816;2024-01-25T12:47:11;27.70;;;19.30;;
68938;SDS011;59064;45.294;11.816;2024-01-25T12:49:41;27.70;;;19.00;;
68938;SDS011;59064;45.294;11.816;2024-01-25T12:52:08;26.50;;;19.20;;
68938;SDS011;59064;45.294;11.816;2024-01-25T12:54:35;28.80;;;21.20;;
68938;SDS011;59064;45.294;11.816;2024-01-25T12:57:00;28.20;;;21.00;;
68938;SDS011;59064;45.294;11.816;2024-01-25T12:59:26;28.00;;;21.10;;
68938;SDS011;59064;45.294;11.816;2024-01-25T13:01:51;29.60;;;21.30;;
68938;SDS011;59064;45.294;11.816;2024-01-25T13:04:17;27.10;;;20.10;;
68938;SDS011;59064;45.294;11.816;2024-01-25T13:06:42;30.60;;;20.80;;
68938;SDS011;59064;45.294;11.816;2024-01-25T13:09:08;28.70;;;19.90;;
68938;SDS011;59064;45.294;11.816;2024-01-25T13:11:33;27.40;;;20.30;;
68938;SDS011;59064;45.294;11.816;2024-01-25T13:13:59;31.20;;;20.80;;
68938;SDS011;59064;45.294;11.816;2024-01-25T13:16:25;28.50;;;22.00;;
68938;SDS011;59064;45.294;11.816;2024-01-25T13:18:50;29.00;;;21.00;;
68938;SDS011;59064;45.294;11.816;2024-01-25T13:21:16;31.60;;;23.10;;
68938;SDS011;59064;45.294;11.816;2024-01-25T13:23:41;29.80;;;23.30;;
68938;SDS011;59064;45.294;11.816;2024-01-25T13:26:07;29.20;;;21.20;;
68938;SDS011;59064;45.294;11.816;2024-01-25T13:28:32;27.50;;;21.30;;
68938;SDS011;59064;45.294;11.816;2024-01-25T13:30:58;30.10;;;23.20;;
68938;SDS011;59064;45.294;11.816;2024-01-25T13:33:24;28.70;;;22.80;;
68938;SDS011;59064;45.294;11.816;2024-01-25T13:35:50;23.60;;;20.10;;
68938;SDS011;59064;45.294;11.816;2024-01-25T13:38:16;29.00;;;21.60;;
68938;SDS011;59064;45.294;11.816;2024-01-25T13:40:41;27.50;;;21.70;;
68938;SDS011;59064;45.294;11.816;2024-01-25T13:43:08;33.30;;;22.20;;
68938;SDS011;59064;45.294;11.816;2024-01-25T13:45:33;28.00;;;22.90;;
68938;SDS011;59064;45.294;11.816;2024-01-25T13:47:59;30.80;;;23.10;;
68938;SDS011;59064;45.294;11.816;2024-01-25T13:50:24;29.50;;;20.90;;
68938;SDS011;59064;45.294;11.816;2024-01-25T13:52:50;32.10;;;22.80;;
68938;SDS011;59064;45.294;11.816;2024-01-25T13:55:16;29.10;;;22.70;;
68938;SDS011;59064;45.294;11.816;2024-01-25T13:57:41;27.90;;;21.20;;
68938;SDS011;59064;45.294;11.816;2024-01-25T14:00:08;27.70;;;21.40;;
68938;SDS011;59064;45.294;11.816;2024-01-25T14:02:35;28.70;;;21.30;;
68938;SDS011;59064;45.294;11.816;2024-01-25T14:05:01;28.00;;;21.20;;
68938;SDS011;59064;45.294;11.816;2024-01-25T14:07:27;26.80;;;20.80;;